Portada
METAR-TAF:

METAR-TAF

Aeropuertos :

Zanjan, Irán

latitud: 36-41N, longitud: 048-29E, altitud: 1663 m

Observación

El informe se hizo hace 45 minutos, a las 15:00 UTC
Viento 12 kt del este
Temperatura 0°C
Humedad 64%
Presión 1022 hPa
Visibilidad 10 km o más
Escasas nubes a una altura de 1500 ft
Escasas nubes a una altura de 3000 ft, Cumulonimbus.
Nubes dispersas a una altura de 3500 ft
Cielo nuboso a una altura de 8000 ft

METAR: OITZ 051500Z 08012KT 9999 FEW015 FEW030CB SCT035 BKN080 M00/M06 Q1021 A3018

Hora: 19:15 (15:45 UTC)


TAF: falta

Observaciones y pronósticos meteorológicos de más de 4000 aeropuertos (mensajes METAR y TAF).

Los puntos amarillos y rojos representan las estaciones disponibles.

Ponga el ratón en el punto deseado para ver el nombre de la estación.

Haga clic para ver las observaciones y los pronósticos meteorológicos.

Para cambiar el mapa : haga clic en los botones verdes con una cruz de color negro para hacer un zoom, en el botón verde con un guión para alejar o en las flechas verdes para mapas adyacentes.


METAR-TAF: